Anna Noli — IZEL — position and weather

sailwx.info

Track history (hours):
 
Tides and Currents Weather Stations Pressure Air Temp Water Temp Dewpoint Dewpoint Depression Visibility Wind Speed Wind Dir Waves Ship Positions

Anna Noli

Last reported at 2014-Jul-23 19:30 UTC. Time now 2014-Jul-23 20:12 UTC.
Position N 44°18' E 008°29'.

Length 32 m.

Type: Tug. MMSI: 247046500.

Date/timePositionNaut miles runAvg speedWind from/ knotsBaromVisibWave heightAir tempDewpointWater temp
2014-Jul-23 19:30N 44°18' E 008°29'0 0.0
2014-Jul-23 18:24N 44°18' E 008°29'0 0.0
2014-Jul-23 17:24N 44°18' E 008°29'0 0.0
2014-Jul-23 16:15N 44°18' E 008°29'0 0.0
2014-Jul-23 15:33N 44°18' E 008°29'0 0.0
2014-Jul-23 14:30N 44°18' E 008°29'0 0.0
2014-Jul-23 13:33N 44°18' E 008°29'0 0.0
2014-Jul-23 11:24N 44°18' E 008°29'0 0.0
2014-Jul-23 09:06N 44°18' E 008°29'0 0.0
2014-Jul-23 08:30N 44°18' E 008°29'0 0.0
2014-Jul-23 07:30N 44°18' E 008°29'0 0.0
2014-Jul-23 06:30N 44°18' E 008°29'0 0.0
2014-Jul-23 04:30N 44°18' E 008°29'0 0.0
2014-Jul-23 03:24N 44°18' E 008°29'0 0.0
2014-Jul-23 02:21N 44°18' E 008°29'0 0.0
2014-Jul-23 01:18N 44°18' E 008°29'0 0.0
2014-Jul-23 00:30N 44°18' E 008°29'0 0.0
2014-Jul-22 23:33N 44°18' E 008°29'0 0.0
2014-Jul-22 22:30N 44°18' E 008°29'0 0.0
2014-Jul-22 21:18N 44°18' E 008°29'0 0.0
2014-Jul-22 19:30N 44°18' E 008°29'0 0.0
2014-Jul-22 18:30N 44°18' E 008°29'0 0.0
2014-Jul-22 17:30N 44°18' E 008°29'0 0.0
2014-Jul-22 16:30N 44°18' E 008°29'0 0.0
2014-Jul-22 15:30N 44°18' E 008°29'0 0.0
2014-Jul-22 14:33N 44°18' E 008°29'0 0.0
2014-Jul-22 13:33N 44°18' E 008°29'0 0.0
2014-Jul-22 12:30N 44°18' E 008°29'0 0.0
2014-Jul-22 11:30N 44°18' E 008°29'0 0.0
2014-Jul-22 10:33N 44°18' E 008°29'0 0.0
2014-Jul-22 08:24N 44°18' E 008°29'0 0.0
2014-Jul-22 07:30N 44°18' E 008°29'0 0.0
2014-Jul-22 06:30N 44°18' E 008°29'0 0.0
2014-Jul-22 04:18N 44°18' E 008°29'0 0.0
2014-Jul-22 03:27N 44°18' E 008°29'0 0.0
2014-Jul-22 02:33N 44°18' E 008°29'0 0.0
2014-Jul-22 01:30N 44°18' E 008°29'0 0.0
2014-Jul-22 00:18N 44°18' E 008°29'0 0.0
2014-Jul-21 23:33N 44°18' E 008°29'0 0.0
2014-Jul-21 22:21N 44°18' E 008°29'0 0.0
2014-Jul-21 20:24N 44°18' E 008°29'0 0.0
2014-Jul-21 20:09N 44°18' E 008°29'0 0.0
2014-Jul-21 19:18N 44°18' E 008°29'0 0.0
2014-Jul-21 18:30N 44°18' E 008°29'1 0.2
2014-Jul-21 15:33N 44°19' E 008°30'3 2.7
2014-Jul-21 14:32N 44°17' E 008°28'0 0.2
2014-Jul-21 13:32N 44°16' E 008°28'2 2.0
2014-Jul-21 12:19N 44°18' E 008°30'1 0.7
2014-Jul-21 11:25N 44°18' E 008°29'0 0.0
2014-Jul-21 06:16N 44°18' E 008°29'0 0.0
2014-Jul-21 04:07N 44°18' E 008°29'0 0.0
2014-Jul-21 03:31N 44°18' E 008°29'0 0.0
2014-Jul-21 02:25N 44°18' E 008°29'0 0.0
2014-Jul-21 01:31N 44°18' E 008°29'0 0.0
2014-Jul-21 00:28N 44°18' E 008°29'0 0.0
2014-Jul-20 23:31N 44°18' E 008°29'0 0.0
2014-Jul-20 19:28N 44°18' E 008°29'0 0.0
2014-Jul-20 18:28N 44°18' E 008°29'0 0.0
2014-Jul-20 16:16N 44°18' E 008°29'0 0.0
2014-Jul-20 15:31N 44°18' E 008°29'0 0.0
2014-Jul-20 11:22N 44°18' E 008°29'0 0.0
2014-Jul-20 09:05N 44°19' E 008°29'2 3.5
2014-Jul-20 08:26N 44°17' E 008°28'0 0.2
2014-Jul-20 07:33N 44°16' E 008°28'1 0.5
2014-Jul-20 06:33N 44°16' E 008°28'3 2.5
2014-Jul-20 05:26N 44°18' E 008°29'0 0.0
2014-Jul-20 04:14N 44°18' E 008°29'0 0.0
2014-Jul-20 03:23N 44°18' E 008°29'0 0.0
2014-Jul-19 23:32N 44°18' E 008°29'0 0.0
2014-Jul-19 20:26N 44°18' E 008°29'0 0.0
2014-Jul-19 19:26N 44°18' E 008°29'0 0.0
2014-Jul-19 18:32N 44°18' E 008°29'0 0.0
2014-Jul-19 17:26N 44°18' E 008°29'0 0.0
2014-Jul-19 16:32N 44°18' E 008°29'0 0.0
2014-Jul-19 15:32N 44°18' E 008°29'0 0.0
2014-Jul-19 14:32N 44°18' E 008°29'0 0.0
2014-Jul-19 13:26N 44°18' E 008°29'0 0.0
2014-Jul-19 12:32N 44°18' E 008°29'3 2.8
2014-Jul-19 11:31N 44°16' E 008°27'3 3.5
2014-Jul-19 10:33N 44°19' E 008°30'1 0.5
2014-Jul-19 09:09N 44°18' E 008°29'0 0.0
2014-Jul-19 08:06N 44°18' E 008°29'0 0.0
2014-Jul-19 07:33N 44°18' E 008°29'0 0.0
2014-Jul-19 06:30N 44°18' E 008°29'0 0.0
2014-Jul-19 05:33N 44°18' E 008°29'0 0.0
2014-Jul-19 04:27N 44°18' E 008°29'0 0.0
2014-Jul-19 03:30N 44°18' E 008°29'0 0.0
2014-Jul-19 02:33N 44°18' E 008°29'0 0.0
2014-Jul-19 01:33N 44°18' E 008°29'0 0.0
2014-Jul-19 00:33N 44°18' E 008°29'0 0.0
2014-Jul-18 23:33N 44°18' E 008°29'0 0.0
2014-Jul-18 22:30N 44°18' E 008°29'0 0.0
2014-Jul-18 20:09N 44°18' E 008°29'0 0.0
2014-Jul-18 19:33N 44°18' E 008°29'0 0.0
2014-Jul-18 18:33N 44°18' E 008°29'0 0.0
2014-Jul-18 15:33N 44°18' E 008°29'0 0.0
2014-Jul-18 14:27N 44°18' E 008°29'0 0.0
2014-Jul-18 13:33N 44°18' E 008°29'0 0.0
2014-Jul-18 12:33N 44°18' E 008°29'0 0.0
2014-Jul-18 11:33N 44°18' E 008°29'0 0.0
2014-Jul-18 10:27N 44°18' E 008°29'0 0.0
2014-Jul-18 09:09N 44°18' E 008°29'0 0.0
2014-Jul-18 07:33N 44°18' E 008°29'0 0.0
2014-Jul-18 06:33N 44°18' E 008°29'0 0.0
2014-Jul-18 04:09N 44°18' E 008°29'0 0.0
2014-Jul-18 03:33N 44°18' E 008°29'0 0.0
2014-Jul-18 02:33N 44°18' E 008°29'0 0.0
2014-Jul-18 01:33N 44°18' E 008°29'0 0.0
2014-Jul-18 00:30N 44°18' E 008°29'0 0.0
2014-Jul-17 23:33N 44°18' E 008°29'0 0.0
2014-Jul-17 22:15N 44°18' E 008°29'0 0.0
2014-Jul-17 21:33N 44°18' E 008°29'0 0.0
2014-Jul-17 20:27N 44°18' E 008°29'0 0.0
2014-Jul-17 19:33N 44°18' E 008°29'0 0.0
2014-Jul-17 18:27N 44°18' E 008°29'0 0.0
2014-Jul-17 17:33N 44°18' E 008°29'0 0.0
2014-Jul-17 16:27N 44°18' E 008°29'0 0.0
2014-Jul-17 15:33N 44°18' E 008°29'0 0.0
2014-Jul-17 14:33N 44°18' E 008°29'0 0.0
2014-Jul-17 12:18N 44°18' E 008°29'3 4.3
2014-Jul-17 11:33N 44°16' E 008°27'3 2.9
2014-Jul-17 10:28N 44°18' E 008°29'0 0.0
2014-Jul-17 08:28N 44°18' E 008°29'0 0.0
2014-Jul-17 07:28N 44°18' E 008°29'0 0.0
2014-Jul-17 06:10N 44°18' E 008°29'0 0.0
2014-Jul-17 05:04N 44°18' E 008°29'0 0.0
2014-Jul-17 04:04N 44°18' E 008°29'0 0.0
2014-Jul-17 03:28N 44°18' E 008°29'0 0.0
2014-Jul-17 02:28N 44°18' E 008°29'0 0.0
2014-Jul-17 01:31N 44°18' E 008°29'0 0.0
2014-Jul-17 00:31N 44°18' E 008°29'0 0.0
2014-Jul-16 23:31N 44°18' E 008°29'0 0.0
2014-Jul-16 22:31N 44°18' E 008°29'0 0.0
2014-Jul-16 21:31N 44°18' E 008°29'0 0.0
2014-Jul-16 20:22N 44°18' E 008°29'0 0.0
2014-Jul-16 19:28N 44°18' E 008°29'0 0.0
2014-Jul-16 18:31N 44°18' E 008°29'0 0.0
2014-Jul-16 16:22N 44°18' E 008°29'0 0.0
2014-Jul-16 15:28N 44°18' E 008°29'0 0.0
2014-Jul-16 14:31N 44°18' E 008°29'0 0.0
2014-Jul-16 13:19N 44°18' E 008°29'0 0.0
2014-Jul-16 12:10N 44°18' E 008°29'0 0.0
2014-Jul-16 11:19N 44°18' E 008°29'0 0.0
2014-Jul-16 10:25N 44°18' E 008°29'0 0.0
2014-Jul-16 09:16N 44°18' E 008°29'0 0.0
2014-Jul-16 08:25N 44°18' E 008°29'0 0.0
2014-Jul-16 07:25N 44°18' E 008°29'0 0.0
2014-Jul-16 06:28N 44°18' E 008°29'0 0.0
2014-Jul-16 05:28N 44°18' E 008°29'0 0.0
2014-Jul-16 04:28N 44°18' E 008°29'0 0.5
2014-Jul-16 03:33N 44°19' E 008°30'0 0.4
2014-Jul-16 02:27N 44°18' E 008°29'0 0.0
2014-Jul-16 01:33N 44°18' E 008°29'0 0.0
2014-Jul-16 00:30N 44°18' E 008°29'0 0.0
2014-Jul-15 23:30N 44°18' E 008°29'0 0.0
2014-Jul-15 22:33N 44°18' E 008°29'0 0.0
2014-Jul-15 21:12N 44°18' E 008°29'0 0.0
2014-Jul-15 20:30N 44°18' E 008°29'0 0.0
2014-Jul-15 19:30N 44°18' E 008°29'0 0.0
2014-Jul-15 18:15N 44°18' E 008°29'0 0.0
2014-Jul-15 17:06N 44°18' E 008°29'0 0.0
2014-Jul-15 16:18N 44°18' E 008°29'0 0.0
2014-Jul-15 15:33N 44°18' E 008°29'0 0.0
2014-Jul-15 14:27N 44°18' E 008°29'0 0.0
2014-Jul-15 13:27N 44°18' E 008°29'0 0.0
2014-Jul-15 12:30N 44°18' E 008°29'0 0.0
2014-Jul-15 11:27N 44°18' E 008°29'0 0.0
2014-Jul-15 10:27N 44°18' E 008°29'0 0.0
2014-Jul-15 09:30N 44°18' E 008°29'0 0.0
2014-Jul-15 08:24N 44°18' E 008°29'0 0.0
2014-Jul-15 07:30N 44°18' E 008°29'1 1.1
2014-Jul-15 06:33N 44°18' E 008°29'1 1.0
2014-Jul-15 05:30N 44°18' E 008°29'0 0.0
2014-Jul-15 04:30N 44°18' E 008°29'0 0.0
2014-Jul-15 03:30N 44°18' E 008°29'0 0.0
2014-Jul-15 02:30N 44°18' E 008°29'0 0.0
2014-Jul-15 01:30N 44°18' E 008°29'0 0.0
2014-Jul-15 00:27N 44°18' E 008°29'0 0.0
2014-Jul-14 23:30N 44°18' E 008°29'0 0.0
2014-Jul-14 22:30N 44°18' E 008°29'0 0.0
2014-Jul-14 21:18N 44°18' E 008°29'0 0.0
2014-Jul-14 20:30N 44°18' E 008°29'0 0.0
2014-Jul-14 19:30N 44°18' E 008°29'0 0.0
2014-Jul-14 18:27N 44°18' E 008°29'0 0.0
2014-Jul-14 17:33N 44°18' E 008°29'0 0.0
2014-Jul-14 16:18N 44°18' E 008°29'0 0.0
2014-Jul-14 14:33N 44°18' E 008°29'0 0.0
2014-Jul-14 13:30N 44°18' E 008°29'0 0.0
2014-Jul-14 11:33N 44°18' E 008°29'0 0.0
2014-Jul-14 10:15N 44°18' E 008°29'  
Track history (hours):
 
Tides and Currents Weather Stations Pressure Air Temp Water Temp Dewpoint Dewpoint Depression Visibility Wind Speed Wind Dir Waves Ship Positions

Anna Noli

Last reported at 2014-Jul-23 19:30 UTC. Time now 2014-Jul-23 20:12 UTC.
Position N 44°18' E 008°29'.

Length 32 m.

Type: Tug. MMSI: 247046500.

Date/timePositionNaut miles runAvg speedWind from/ knotsBaromVisibWave heightAir tempDewpointWater temp
2014-Jul-23 19:30N 44°18' E 008°29'0 0.0
2014-Jul-23 18:24N 44°18' E 008°29'0 0.0
2014-Jul-23 17:24N 44°18' E 008°29'0 0.0
2014-Jul-23 16:15N 44°18' E 008°29'0 0.0
2014-Jul-23 15:33N 44°18' E 008°29'0 0.0
2014-Jul-23 14:30N 44°18' E 008°29'0 0.0
2014-Jul-23 13:33N 44°18' E 008°29'0 0.0
2014-Jul-23 11:24N 44°18' E 008°29'0 0.0
2014-Jul-23 09:06N 44°18' E 008°29'0 0.0
2014-Jul-23 08:30N 44°18' E 008°29'0 0.0
2014-Jul-23 07:30N 44°18' E 008°29'0 0.0
2014-Jul-23 06:30N 44°18' E 008°29'0 0.0
2014-Jul-23 04:30N 44°18' E 008°29'0 0.0
2014-Jul-23 03:24N 44°18' E 008°29'0 0.0
2014-Jul-23 02:21N 44°18' E 008°29'0 0.0
2014-Jul-23 01:18N 44°18' E 008°29'0 0.0
2014-Jul-23 00:30N 44°18' E 008°29'0 0.0
2014-Jul-22 23:33N 44°18' E 008°29'0 0.0
2014-Jul-22 22:30N 44°18' E 008°29'0 0.0
2014-Jul-22 21:18N 44°18' E 008°29'0 0.0
2014-Jul-22 19:30N 44°18' E 008°29'0 0.0
2014-Jul-22 18:30N 44°18' E 008°29'0 0.0
2014-Jul-22 17:30N 44°18' E 008°29'0 0.0
2014-Jul-22 16:30N 44°18' E 008°29'0 0.0
2014-Jul-22 15:30N 44°18' E 008°29'0 0.0
2014-Jul-22 14:33N 44°18' E 008°29'0 0.0
2014-Jul-22 13:33N 44°18' E 008°29'0 0.0
2014-Jul-22 12:30N 44°18' E 008°29'0 0.0
2014-Jul-22 11:30N 44°18' E 008°29'0 0.0
2014-Jul-22 10:33N 44°18' E 008°29'0 0.0
2014-Jul-22 08:24N 44°18' E 008°29'0 0.0
2014-Jul-22 07:30N 44°18' E 008°29'0 0.0
2014-Jul-22 06:30N 44°18' E 008°29'0 0.0
2014-Jul-22 04:18N 44°18' E 008°29'0 0.0
2014-Jul-22 03:27N 44°18' E 008°29'0 0.0
2014-Jul-22 02:33N 44°18' E 008°29'0 0.0
2014-Jul-22 01:30N 44°18' E 008°29'0 0.0
2014-Jul-22 00:18N 44°18' E 008°29'0 0.0
2014-Jul-21 23:33N 44°18' E 008°29'0 0.0
2014-Jul-21 22:21N 44°18' E 008°29'0 0.0
2014-Jul-21 20:24N 44°18' E 008°29'0 0.0
2014-Jul-21 20:09N 44°18' E 008°29'0 0.0
2014-Jul-21 19:18N 44°18' E 008°29'0 0.0
2014-Jul-21 18:30N 44°18' E 008°29'1 0.2
2014-Jul-21 15:33N 44°19' E 008°30'3 2.7
2014-Jul-21 14:32N 44°17' E 008°28'0 0.2
2014-Jul-21 13:32N 44°16' E 008°28'2 2.0
2014-Jul-21 12:19N 44°18' E 008°30'1 0.7
2014-Jul-21 11:25N 44°18' E 008°29'0 0.0
2014-Jul-21 06:16N 44°18' E 008°29'0 0.0
2014-Jul-21 04:07N 44°18' E 008°29'0 0.0
2014-Jul-21 03:31N 44°18' E 008°29'0 0.0
2014-Jul-21 02:25N 44°18' E 008°29'0 0.0
2014-Jul-21 01:31N 44°18' E 008°29'0 0.0
2014-Jul-21 00:28N 44°18' E 008°29'0 0.0
2014-Jul-20 23:31N 44°18' E 008°29'0 0.0
2014-Jul-20 19:28N 44°18' E 008°29'0 0.0
2014-Jul-20 18:28N 44°18' E 008°29'0 0.0
2014-Jul-20 16:16N 44°18' E 008°29'0 0.0
2014-Jul-20 15:31N 44°18' E 008°29'0 0.0
2014-Jul-20 11:22N 44°18' E 008°29'0 0.0
2014-Jul-20 09:05N 44°19' E 008°29'2 3.5
2014-Jul-20 08:26N 44°17' E 008°28'0 0.2
2014-Jul-20 07:33N 44°16' E 008°28'1 0.5
2014-Jul-20 06:33N 44°16' E 008°28'3 2.5
2014-Jul-20 05:26N 44°18' E 008°29'0 0.0
2014-Jul-20 04:14N 44°18' E 008°29'0 0.0
2014-Jul-20 03:23N 44°18' E 008°29'0 0.0
2014-Jul-19 23:32N 44°18' E 008°29'0 0.0
2014-Jul-19 20:26N 44°18' E 008°29'0 0.0
2014-Jul-19 19:26N 44°18' E 008°29'0 0.0
2014-Jul-19 18:32N 44°18' E 008°29'0 0.0
2014-Jul-19 17:26N 44°18' E 008°29'0 0.0
2014-Jul-19 16:32N 44°18' E 008°29'0 0.0
2014-Jul-19 15:32N 44°18' E 008°29'0 0.0
2014-Jul-19 14:32N 44°18' E 008°29'0 0.0
2014-Jul-19 13:26N 44°18' E 008°29'0 0.0
2014-Jul-19 12:32N 44°18' E 008°29'3 2.8
2014-Jul-19 11:31N 44°16' E 008°27'3 3.5
2014-Jul-19 10:33N 44°19' E 008°30'1 0.5
2014-Jul-19 09:09N 44°18' E 008°29'0 0.0
2014-Jul-19 08:06N 44°18' E 008°29'0 0.0
2014-Jul-19 07:33N 44°18' E 008°29'0 0.0
2014-Jul-19 06:30N 44°18' E 008°29'0 0.0
2014-Jul-19 05:33N 44°18' E 008°29'0 0.0
2014-Jul-19 04:27N 44°18' E 008°29'0 0.0
2014-Jul-19 03:30N 44°18' E 008°29'0 0.0
2014-Jul-19 02:33N 44°18' E 008°29'0 0.0
2014-Jul-19 01:33N 44°18' E 008°29'0 0.0
2014-Jul-19 00:33N 44°18' E 008°29'0 0.0
2014-Jul-18 23:33N 44°18' E 008°29'0 0.0
2014-Jul-18 22:30N 44°18' E 008°29'0 0.0
2014-Jul-18 20:09N 44°18' E 008°29'0 0.0
2014-Jul-18 19:33N 44°18' E 008°29'0 0.0
2014-Jul-18 18:33N 44°18' E 008°29'0 0.0
2014-Jul-18 15:33N 44°18' E 008°29'0 0.0
2014-Jul-18 14:27N 44°18' E 008°29'0 0.0
2014-Jul-18 13:33N 44°18' E 008°29'0 0.0
2014-Jul-18 12:33N 44°18' E 008°29'0 0.0
2014-Jul-18 11:33N 44°18' E 008°29'0 0.0
2014-Jul-18 10:27N 44°18' E 008°29'0 0.0
2014-Jul-18 09:09N 44°18' E 008°29'0 0.0
2014-Jul-18 07:33N 44°18' E 008°29'0 0.0
2014-Jul-18 06:33N 44°18' E 008°29'0 0.0
2014-Jul-18 04:09N 44°18' E 008°29'0 0.0
2014-Jul-18 03:33N 44°18' E 008°29'0 0.0
2014-Jul-18 02:33N 44°18' E 008°29'0 0.0
2014-Jul-18 01:33N 44°18' E 008°29'0 0.0
2014-Jul-18 00:30N 44°18' E 008°29'0 0.0
2014-Jul-17 23:33N 44°18' E 008°29'0 0.0
2014-Jul-17 22:15N 44°18' E 008°29'0 0.0
2014-Jul-17 21:33N 44°18' E 008°29'0 0.0
2014-Jul-17 20:27N 44°18' E 008°29'0 0.0
2014-Jul-17 19:33N 44°18' E 008°29'0 0.0
2014-Jul-17 18:27N 44°18' E 008°29'0 0.0
2014-Jul-17 17:33N 44°18' E 008°29'0 0.0
2014-Jul-17 16:27N 44°18' E 008°29'0 0.0
2014-Jul-17 15:33N 44°18' E 008°29'0 0.0
2014-Jul-17 14:33N 44°18' E 008°29'0 0.0
2014-Jul-17 12:18N 44°18' E 008°29'3 4.3
2014-Jul-17 11:33N 44°16' E 008°27'3 2.9
2014-Jul-17 10:28N 44°18' E 008°29'0 0.0
2014-Jul-17 08:28N 44°18' E 008°29'0 0.0
2014-Jul-17 07:28N 44°18' E 008°29'0 0.0
2014-Jul-17 06:10N 44°18' E 008°29'0 0.0
2014-Jul-17 05:04N 44°18' E 008°29'0 0.0
2014-Jul-17 04:04N 44°18' E 008°29'0 0.0
2014-Jul-17 03:28N 44°18' E 008°29'0 0.0
2014-Jul-17 02:28N 44°18' E 008°29'0 0.0
2014-Jul-17 01:31N 44°18' E 008°29'0 0.0
2014-Jul-17 00:31N 44°18' E 008°29'0 0.0
2014-Jul-16 23:31N 44°18' E 008°29'0 0.0
2014-Jul-16 22:31N 44°18' E 008°29'0 0.0
2014-Jul-16 21:31N 44°18' E 008°29'0 0.0
2014-Jul-16 20:22N 44°18' E 008°29'0 0.0
2014-Jul-16 19:28N 44°18' E 008°29'0 0.0
2014-Jul-16 18:31N 44°18' E 008°29'0 0.0
2014-Jul-16 16:22N 44°18' E 008°29'0 0.0
2014-Jul-16 15:28N 44°18' E 008°29'0 0.0
2014-Jul-16 14:31N 44°18' E 008°29'0 0.0
2014-Jul-16 13:19N 44°18' E 008°29'0 0.0
2014-Jul-16 12:10N 44°18' E 008°29'0 0.0
2014-Jul-16 11:19N 44°18' E 008°29'0 0.0
2014-Jul-16 10:25N 44°18' E 008°29'0 0.0
2014-Jul-16 09:16N 44°18' E 008°29'0 0.0
2014-Jul-16 08:25N 44°18' E 008°29'0 0.0
2014-Jul-16 07:25N 44°18' E 008°29'0 0.0
2014-Jul-16 06:28N 44°18' E 008°29'0 0.0
2014-Jul-16 05:28N 44°18' E 008°29'0 0.0
2014-Jul-16 04:28N 44°18' E 008°29'0 0.5
2014-Jul-16 03:33N 44°19' E 008°30'0 0.4
2014-Jul-16 02:27N 44°18' E 008°29'0 0.0
2014-Jul-16 01:33N 44°18' E 008°29'0 0.0
2014-Jul-16 00:30N 44°18' E 008°29'0 0.0
2014-Jul-15 23:30N 44°18' E 008°29'0 0.0
2014-Jul-15 22:33N 44°18' E 008°29'0 0.0
2014-Jul-15 21:12N 44°18' E 008°29'0 0.0
2014-Jul-15 20:30N 44°18' E 008°29'0 0.0
2014-Jul-15 19:30N 44°18' E 008°29'0 0.0
2014-Jul-15 18:15N 44°18' E 008°29'0 0.0
2014-Jul-15 17:06N 44°18' E 008°29'0 0.0
2014-Jul-15 16:18N 44°18' E 008°29'0 0.0
2014-Jul-15 15:33N 44°18' E 008°29'0 0.0
2014-Jul-15 14:27N 44°18' E 008°29'0 0.0
2014-Jul-15 13:27N 44°18' E 008°29'0 0.0
2014-Jul-15 12:30N 44°18' E 008°29'0 0.0
2014-Jul-15 11:27N 44°18' E 008°29'0 0.0
2014-Jul-15 10:27N 44°18' E 008°29'0 0.0
2014-Jul-15 09:30N 44°18' E 008°29'0 0.0
2014-Jul-15 08:24N 44°18' E 008°29'0 0.0
2014-Jul-15 07:30N 44°18' E 008°29'1 1.1
2014-Jul-15 06:33N 44°18' E 008°29'1 1.0
2014-Jul-15 05:30N 44°18' E 008°29'0 0.0
2014-Jul-15 04:30N 44°18' E 008°29'0 0.0
2014-Jul-15 03:30N 44°18' E 008°29'0 0.0
2014-Jul-15 02:30N 44°18' E 008°29'0 0.0
2014-Jul-15 01:30N 44°18' E 008°29'0 0.0
2014-Jul-15 00:27N 44°18' E 008°29'0 0.0
2014-Jul-14 23:30N 44°18' E 008°29'0 0.0
2014-Jul-14 22:30N 44°18' E 008°29'0 0.0
2014-Jul-14 21:18N 44°18' E 008°29'0 0.0
2014-Jul-14 20:30N 44°18' E 008°29'0 0.0
2014-Jul-14 19:30N 44°18' E 008°29'0 0.0
2014-Jul-14 18:27N 44°18' E 008°29'0 0.0
2014-Jul-14 17:33N 44°18' E 008°29'0 0.0
2014-Jul-14 16:18N 44°18' E 008°29'0 0.0
2014-Jul-14 14:33N 44°18' E 008°29'0 0.0
2014-Jul-14 13:30N 44°18' E 008°29'0 0.0
2014-Jul-14 11:33N 44°18' E 008°29'0 0.0
2014-Jul-14 10:15N 44°18' E 008°29'  

Dump ship's entire track history